createdAt,value
2023-02-22T00:01:21.642Z,21.30
2023-02-22T00:04:21.472Z,20.80
2023-02-22T00:07:14.752Z,21.80
2023-02-22T00:10:07.204Z,20.70
2023-02-22T00:13:07.872Z,20.97
2023-02-22T00:16:17.056Z,21.67
2023-02-22T00:19:11.346Z,20.70
2023-02-22T00:22:23.527Z,21.43
2023-02-22T00:28:12.084Z,21.47
2023-02-22T00:30:53.184Z,20.33
2023-02-22T00:37:04.439Z,21.93
2023-02-22T00:39:32.928Z,21.47
2023-02-22T00:42:01.084Z,22.63
2023-02-22T00:45:29.246Z,20.47
2023-02-22T00:52:14.220Z,21.93
2023-02-22T00:55:07.622Z,20.13
2023-02-22T00:58:15.963Z,21.27
2023-02-22T01:01:26.935Z,21.03
2023-02-22T01:04:22.762Z,21.83
2023-02-22T01:07:18.087Z,23.67
2023-02-22T01:10:21.170Z,22.63
2023-02-22T01:13:26.817Z,23.50
2023-02-22T01:16:11.289Z,24.63
2023-02-22T01:18:57.585Z,22.33
2023-02-22T01:22:11.622Z,23.80
2023-02-22T01:28:38.648Z,23.10
2023-02-22T01:31:35.239Z,23.73
2023-02-22T01:34:31.220Z,24.37
2023-02-22T01:37:40.105Z,24.03
2023-02-22T01:43:52.399Z,22.93
2023-02-22T01:46:49.074Z,23.40
2023-02-22T01:49:53.820Z,23.67
2023-02-22T01:52:57.652Z,23.20
2023-02-22T01:55:42.293Z,22.43
2023-02-22T01:58:14.857Z,23.23
2023-02-22T02:00:44.832Z,22.77
2023-02-22T02:03:48.210Z,22.40
2023-02-22T02:06:19.865Z,24.23
2023-02-22T02:09:28.848Z,22.97
2023-02-22T02:12:21.127Z,22.47
2023-02-22T02:15:19.642Z,22.97
2023-02-22T02:18:27.625Z,23.27
2023-02-22T02:21:44.025Z,22.80
2023-02-22T02:25:20.572Z,23.37
2023-02-22T02:32:12.774Z,25.23
2023-02-22T02:35:16.852Z,23.03
2023-02-22T02:41:09.005Z,23.57
2023-02-22T02:43:50.905Z,24.63
2023-02-22T02:46:42.876Z,23.30
2023-02-22T02:49:36.992Z,22.67
2023-02-22T02:52:27.465Z,21.60
2023-02-22T02:58:06.116Z,22.90
2023-02-22T03:00:49.245Z,22.40
2023-02-22T03:04:09.592Z,23.30
2023-02-22T03:07:40.340Z,25.10
2023-02-22T03:10:55.433Z,24.47
2023-02-22T03:13:37.832Z,23.57
2023-02-22T03:16:19.415Z,23.60
2023-02-22T03:18:54.652Z,24.67
2023-02-22T03:21:30.406Z,23.57
2023-02-22T03:24:04.817Z,23.23
2023-02-22T03:26:42.103Z,23.10
2023-02-22T03:29:16.183Z,23.00
2023-02-22T03:31:49.750Z,23.00
2023-02-22T03:34:36.829Z,23.17
2023-02-22T03:37:14.495Z,23.23
2023-02-22T03:40:05.049Z,23.73
2023-02-22T03:43:25.070Z,22.53
2023-02-22T03:46:12.765Z,21.70
2023-02-22T03:49:17.888Z,23.13
2023-02-22T03:52:28.564Z,23.40
2023-02-22T03:55:35.500Z,23.67
2023-02-22T03:58:32.905Z,22.80
2023-02-22T04:01:24.195Z,24.37
2023-02-22T04:11:13.749Z,24.03
2023-02-22T04:14:23.993Z,22.80
2023-02-22T04:17:26.674Z,22.83
2023-02-22T04:20:18.596Z,23.13
2023-02-22T04:23:14.551Z,23.93
2023-02-22T04:25:54.623Z,23.83
2023-02-22T04:31:47.219Z,25.33
2023-02-22T04:34:39.202Z,23.77
2023-02-22T04:37:48.382Z,27.07
2023-02-22T04:44:20.585Z,25.00
2023-02-22T04:50:37.776Z,24.40
2023-02-22T04:53:43.911Z,24.03
2023-02-22T05:00:00.411Z,21.80
2023-02-22T05:06:03.753Z,23.10
2023-02-22T05:09:04.416Z,23.17
2023-02-22T05:12:09.761Z,25.03
2023-02-22T05:15:09.310Z,24.77
2023-02-22T05:18:40.586Z,23.10
2023-02-22T05:21:38.232Z,23.50
2023-02-22T05:24:15.519Z,23.23
2023-02-22T05:27:32.117Z,24.57
2023-02-22T05:30:38.162Z,25.40
2023-02-22T05:33:39.361Z,24.20
2023-02-22T05:36:08.841Z,24.93
2023-02-22T05:38:43.441Z,24.80
2023-02-22T05:41:14.999Z,25.47
2023-02-22T05:44:03.346Z,25.30
2023-02-22T05:47:07.179Z,26.33
2023-02-22T05:50:27.800Z,25.10
2023-02-22T05:53:11.482Z,24.60
2023-02-22T05:56:16.041Z,25.53
2023-02-22T05:59:05.807Z,24.47
2023-02-22T06:01:57.524Z,23.60
2023-02-22T06:04:52.216Z,24.33
2023-02-22T06:08:07.911Z,26.83
2023-02-22T06:17:20.737Z,24.90
2023-02-22T06:20:24.983Z,26.97
2023-02-22T06:26:46.356Z,25.43
2023-02-22T06:32:35.961Z,26.30
2023-02-22T06:35:30.483Z,26.27
2023-02-22T06:38:19.580Z,27.40
2023-02-22T06:41:28.647Z,26.80
2023-02-22T06:44:24.694Z,24.50
2023-02-22T06:47:18.626Z,25.60
2023-02-22T06:49:54.379Z,26.27
2023-02-22T06:52:52.171Z,27.67
2023-02-22T06:56:38.723Z,26.10
2023-02-22T07:07:20.458Z,27.27
2023-02-22T07:09:48.716Z,27.20
2023-02-22T07:17:03.089Z,25.10
2023-02-22T07:35:29.121Z,27.43
2023-02-22T07:44:57.740Z,24.80
2023-02-22T07:59:31.948Z,28.33
2023-02-22T08:10:28.983Z,25.77
2023-02-22T08:13:23.273Z,27.77
2023-02-22T08:15:59.697Z,26.47
2023-02-22T08:18:57.650Z,26.87
2023-02-22T08:21:56.048Z,26.37
2023-02-22T08:24:51.249Z,25.97
2023-02-22T08:27:35.199Z,28.23
2023-02-22T08:30:46.589Z,29.47
2023-02-22T08:33:52.014Z,27.50
2023-02-22T08:36:41.745Z,28.17
2023-02-22T08:42:47.131Z,28.13
2023-02-22T08:45:41.337Z,27.03
2023-02-22T08:49:35.384Z,29.53
2023-02-22T08:52:30.709Z,25.73
2023-02-22T08:55:07.886Z,26.07
2023-02-22T09:02:28.226Z,26.87
2023-02-22T09:06:14.715Z,27.90
2023-02-22T09:12:52.345Z,28.50
2023-02-22T09:16:25.231Z,26.10
2023-02-22T09:19:23.667Z,28.00
2023-02-22T09:22:21.484Z,27.50
2023-02-22T09:25:35.259Z,26.20
2023-02-22T09:31:47.890Z,26.50
2023-02-22T09:35:26.794Z,27.23
2023-02-22T09:41:54.613Z,27.67
2023-02-22T09:45:44.974Z,28.57
2023-02-22T09:54:43.574Z,26.97
2023-02-22T09:57:49.164Z,27.73
2023-02-22T10:00:34.818Z,29.23
2023-02-22T10:03:21.858Z,26.83
2023-02-22T10:06:45.292Z,28.00
2023-02-22T10:10:04.686Z,26.77
2023-02-22T10:16:29.625Z,26.10
2023-02-22T10:20:09.841Z,25.37
2023-02-22T10:23:40.819Z,26.80
2023-02-22T10:30:52.669Z,26.80
2023-02-22T10:34:47.883Z,27.70
2023-02-22T10:41:44.198Z,26.67
2023-02-22T11:07:02.434Z,26.33
2023-02-22T11:10:16.887Z,26.20
2023-02-22T11:17:59.934Z,25.00
2023-02-22T11:21:00.627Z,26.13
2023-02-22T11:28:19.941Z,24.40
2023-02-22T11:42:12.617Z,23.83
2023-02-22T11:46:06.578Z,22.63
2023-02-22T12:08:58.747Z,22.10
2023-02-22T12:20:56.854Z,23.13
2023-02-22T12:24:23.609Z,23.40
2023-02-22T12:27:50.074Z,21.40
2023-02-22T12:30:52.978Z,22.67
2023-02-22T12:33:50.504Z,21.77
2023-02-22T12:36:55.407Z,20.70
2023-02-22T12:44:37.252Z,20.70
2023-02-22T12:48:14.322Z,21.90
2023-02-22T12:51:11.487Z,21.20
2023-02-22T12:57:23.642Z,20.60
2023-02-22T13:00:27.222Z,20.67
2023-02-22T13:04:21.470Z,20.53
2023-02-22T13:08:02.395Z,20.53
2023-02-22T13:11:25.784Z,20.13
2023-02-22T13:14:29.041Z,19.47
2023-02-22T13:17:16.435Z,20.57
2023-02-22T13:20:16.785Z,20.67
2023-02-22T13:23:21.588Z,20.03
2023-02-22T13:26:06.951Z,19.50
2023-02-22T13:28:57.496Z,20.40
2023-02-22T13:32:15.830Z,20.00
2023-02-22T13:35:34.930Z,18.70
2023-02-22T13:42:15.652Z,20.30
2023-02-22T13:45:37.061Z,20.53
2023-02-22T13:48:53.104Z,19.77
2023-02-22T13:52:00.058Z,19.43
2023-02-22T13:54:49.547Z,19.10
2023-02-22T13:57:48.191Z,20.70
2023-02-22T14:01:03.268Z,19.60
2023-02-22T14:04:01.210Z,19.00
2023-02-22T14:10:29.934Z,18.77
2023-02-22T14:13:19.807Z,18.90
2023-02-22T14:20:40.332Z,19.23
2023-02-22T14:24:03.132Z,18.47
2023-02-22T14:26:55.010Z,20.50
2023-02-22T14:29:49.292Z,19.70
2023-02-22T14:32:55.946Z,20.27
2023-02-22T14:36:07.358Z,19.37
2023-02-22T14:41:50.349Z,20.63
2023-02-22T14:44:52.555Z,20.90
2023-02-22T14:48:01.404Z,20.47
2023-02-22T14:50:55.436Z,20.07
2023-02-22T14:54:03.597Z,19.93
2023-02-22T14:57:30.093Z,21.30
2023-02-22T15:00:33.995Z,21.17
2023-02-22T15:06:16.815Z,23.90
2023-02-22T15:12:50.992Z,23.90
2023-02-22T15:16:08.362Z,25.97
2023-02-22T15:24:53.322Z,24.23
2023-02-22T15:28:12.106Z,25.20
2023-02-22T15:31:57.010Z,26.37
2023-02-22T15:35:27.256Z,24.37
2023-02-22T15:38:31.582Z,24.67
2023-02-22T15:44:29.810Z,23.97
2023-02-22T15:47:48.926Z,24.17
2023-02-22T15:51:07.549Z,25.60
2023-02-22T15:57:59.588Z,20.83
2023-02-22T16:01:13.120Z,23.37
2023-02-22T16:04:28.209Z,23.47
2023-02-22T16:07:37.156Z,21.80
2023-02-22T16:10:28.431Z,23.73
2023-02-22T16:13:40.772Z,23.93
2023-02-22T16:17:02.149Z,24.00
2023-02-22T16:19:51.085Z,22.00
2023-02-22T16:23:16.739Z,22.97
2023-02-22T16:26:52.561Z,22.03
2023-02-22T16:29:48.452Z,23.60
2023-02-22T16:32:41.125Z,25.60
2023-02-22T16:35:31.350Z,22.50
2023-02-22T16:38:19.100Z,22.20
2023-02-22T16:41:00.133Z,24.30
2023-02-22T16:44:07.543Z,21.80
2023-02-22T16:50:51.369Z,23.70
2023-02-22T16:57:20.001Z,22.43
2023-02-22T17:00:08.404Z,23.03
2023-02-22T17:03:52.786Z,23.63
2023-02-22T17:06:47.918Z,24.27
2023-02-22T17:09:53.068Z,23.87
2023-02-22T17:12:38.241Z,24.47
2023-02-22T17:15:48.697Z,23.43
2023-02-22T17:18:37.360Z,23.57
2023-02-22T17:21:26.087Z,26.13
2023-02-22T17:24:39.814Z,25.07
2023-02-22T17:31:22.506Z,26.90
2023-02-22T17:34:28.969Z,27.13
2023-02-22T17:37:21.773Z,24.40
2023-02-22T17:40:28.618Z,26.20
2023-02-22T17:43:29.568Z,26.47
2023-02-22T17:46:45.042Z,23.20
2023-02-22T17:49:38.886Z,23.97
2023-02-22T17:52:46.091Z,24.83
2023-02-22T17:55:46.201Z,24.90
2023-02-22T17:58:23.457Z,24.70
2023-02-22T18:01:35.461Z,24.30
2023-02-22T18:04:44.341Z,25.23
2023-02-22T18:08:05.756Z,24.07
2023-02-22T18:11:03.666Z,25.33
2023-02-22T18:17:09.682Z,23.20
2023-02-22T18:20:05.756Z,28.87
2023-02-22T18:22:51.775Z,27.57
2023-02-22T18:25:22.782Z,26.53
2023-02-22T18:27:51.200Z,26.30
2023-02-22T18:30:32.026Z,25.43
2023-02-22T18:41:00.833Z,27.00
2023-02-22T18:44:10.676Z,26.17
2023-02-22T18:50:38.748Z,28.63
2023-02-22T18:53:09.072Z,34.33
2023-02-22T18:55:44.788Z,43.50
2023-02-22T18:58:21.038Z,42.20
2023-02-22T19:00:56.008Z,31.10
2023-02-22T19:03:33.561Z,28.93
2023-02-22T19:06:11.816Z,28.10
2023-02-22T19:09:02.283Z,27.90
2023-02-22T19:15:26.593Z,28.13
2023-02-22T19:17:55.484Z,28.37
2023-02-22T19:32:30.267Z,28.50
2023-02-22T19:36:10.963Z,28.00
2023-02-22T19:41:42.679Z,32.40
2023-02-22T19:44:13.919Z,29.70
2023-02-22T19:46:58.985Z,29.60
2023-02-22T19:49:54.930Z,30.33
2023-02-22T19:56:36.196Z,28.27
2023-02-22T19:59:29.794Z,30.57
2023-02-22T20:01:58.566Z,30.43
2023-02-22T21:16:53.981Z,25.33
2023-02-22T21:27:51.658Z,27.57
2023-02-22T21:34:12.146Z,27.97
2023-02-22T21:40:57.295Z,28.57
2023-02-22T21:43:48.590Z,28.90
2023-02-22T21:46:24.675Z,30.73
2023-02-22T21:49:00.174Z,28.97
2023-02-22T21:54:45.154Z,29.73
2023-02-22T21:57:14.845Z,29.70
2023-02-22T22:00:37.766Z,31.57
2023-02-22T22:13:49.281Z,27.20
2023-02-22T22:17:01.937Z,28.23
2023-02-22T22:19:39.590Z,27.97
2023-02-22T22:22:36.539Z,29.73
2023-02-22T22:25:07.528Z,29.67
2023-02-22T22:27:35.700Z,29.00
2023-02-22T22:30:08.511Z,28.07
2023-02-22T22:32:56.500Z,28.73
2023-02-22T22:35:25.225Z,28.77
2023-02-22T22:37:53.733Z,28.87
2023-02-22T22:40:40.931Z,29.13
2023-02-22T22:43:09.535Z,28.57
2023-02-22T22:45:39.106Z,28.03
2023-02-22T22:48:14.659Z,28.83
2023-02-22T22:50:45.588Z,26.90
2023-02-22T22:53:14.342Z,29.33
2023-02-22T22:55:43.042Z,28.63
2023-02-22T22:58:12.671Z,29.50
2023-02-22T23:00:41.962Z,29.40
2023-02-22T23:03:18.077Z,29.67
2023-02-22T23:05:48.516Z,28.70
2023-02-22T23:08:16.740Z,28.53
2023-02-22T23:10:45.807Z,28.90
2023-02-22T23:13:15.698Z,26.90
2023-02-22T23:15:47.725Z,28.97
2023-02-22T23:18:20.420Z,29.50
2023-02-22T23:20:55.173Z,29.33
2023-02-22T23:23:27.636Z,28.70
2023-02-22T23:26:11.742Z,30.40
2023-02-22T23:28:41.291Z,27.67
2023-02-22T23:31:13.914Z,28.80
2023-02-22T23:33:43.997Z,28.60
2023-02-22T23:36:13.713Z,29.00
2023-02-22T23:38:42.438Z,30.47
2023-02-22T23:41:13.343Z,29.10
2023-02-22T23:43:42.127Z,28.73
2023-02-22T23:46:18.502Z,28.77
2023-02-22T23:48:52.141Z,30.37
2023-02-22T23:51:25.259Z,29.77
2023-02-22T23:53:55.664Z,26.40
2023-02-22T23:56:26.730Z,29.00
2023-02-22T23:59:21.032Z,29.50
